LGMK

Mikonos Airport

Mykonos Island, Greece
TAF LGMK 160500Z 1606/1615 15010G20KT 9999 FEW015 BKN025 PROB40 TEMPO 1606/1612 5000 RA PROB40 TEMPO 1606/1609 4000 TSRA SCT010 FEW018CB BKN020 BECMG 1607/1609 17010KT BECMG 1613/1615 25010KT
Issued Valid From Valid To
Dec-16 @ 05:00 UTC
(53 minutes ago)
Dec-16 @ 06:00 UTC
(in 7 minutes)
Dec-16 @ 15:00 UTC
(in 9 hours)
Dec-16 @ 06:00 to Dec-16 @ 07:00
TAF LGMK 160500Z 1606/1615 15010G20KT 9999 FEW015 BKN025
Wind Visibility Clouds
150° at 10 knots
 Gusting to 20 knots
10,000+ meters
  • Few at 1,500' AGL
  • Broken at 2,500' AGL
Temporary  (Probability 40%) Dec-16 @ 06:00 to Dec-16 @ 09:00
PROB40 TEMPO 1606/1609 4000 TSRA SCT010 FEW018CB BKN020
Visibility Clouds Conditions
4,007 meters
  • Scattered at 1,000' AGL
  • Few at 1,800' AGL
  • Broken at 2,000' AGL
  • Thunderstorm
  • Rain
Temporary  (Probability 40%) Dec-16 @ 06:00 to Dec-16 @ 12:00
PROB40 TEMPO 1606/1609 4000 TSRA SCT010 FEW018CB BKN020
Visibility Conditions
5,005 meters
  • Rain
Becoming Dec-16 @ 07:00 to Dec-16 @ 13:00
BECMG 1607/1609 17010KT
Wind Visibility Clouds
170° at 10 knots 10,000+ meters
  • Few at 1,500' AGL
  • Broken at 2,500' AGL
Becoming Dec-16 @ 13:00 to Dec-16 @ 15:00
BECMG 1613/1615 25010KT
Wind Visibility Clouds
250° at 10 knots 10,000+ meters
  • Few at 1,500' AGL
  • Broken at 2,500' AGL
TAF LGMK 160500Z 1606/1615 15010G20KT 9999 FEW015 BKN025 PROB40 TEMPO 1606/1612 5000 RA PROB40 TEMPO 1606/1609 4000 TSRA SCT010 FEW018CB BKN020 BECMG 1607/1609 17010KT BECMG 1613/1615 25010KT
Issued Dec-16 @ 05:00 UTC
(53 minutes ago)
Valid From Dec-16 @ 06:00 UTC
(in 7 minutes)
Valid To Dec-16 @ 15:00 UTC
(in 9 hours)
Dec-16 @ 06:00 - Dec-16 @ 07:00
Wind Visibility
150° at 10 knots
 Gusting to 20 knots
10,000+ meters
Clouds
  • Few at 1,500' AGL
  • Broken at 2,500' AGL
Probability 40% Temporary Dec-16 @ 06:00 - Dec-16 @ 09:00
Clouds
  • Scattered at 1,000' AGL
  • Few at 1,800' AGL
  • Broken at 2,000' AGL
Conditions
  • Thunderstorm
  • Rain
Probability 40% Temporary Dec-16 @ 06:00 - Dec-16 @ 12:00
Conditions
  • Rain
Becoming Dec-16 @ 07:00 - Dec-16 @ 13:00
Wind Visibility
170° at 10 knots 10,000+ meters
Clouds
  • Few at 1,500' AGL
  • Broken at 2,500' AGL
Becoming Dec-16 @ 13:00 - Dec-16 @ 15:00
Wind Visibility
250° at 10 knots 10,000+ meters
Clouds
  • Few at 1,500' AGL
  • Broken at 2,500' AGL